createdAt,value
2022-12-22T00:02:31.205Z,6.00
2022-12-22T00:05:16.927Z,6.00
2022-12-22T00:08:02.400Z,6.00
2022-12-22T00:10:49.485Z,5.90
2022-12-22T00:13:35.040Z,5.90
2022-12-22T00:16:20.429Z,6.00
2022-12-22T00:19:06.074Z,6.00
2022-12-22T00:21:51.605Z,6.00
2022-12-22T00:24:37.235Z,6.00
2022-12-22T00:27:24.258Z,6.10
2022-12-22T00:30:09.996Z,6.10
2022-12-22T00:32:56.028Z,6.10
2022-12-22T00:35:43.878Z,6.10
2022-12-22T00:38:33.686Z,6.10
2022-12-22T00:41:19.258Z,6.00
2022-12-22T00:44:06.350Z,6.00
2022-12-22T00:46:52.164Z,6.00
2022-12-22T00:49:37.561Z,6.00
2022-12-22T00:52:23.138Z,6.00
2022-12-22T00:55:09.489Z,6.00
2022-12-22T00:57:54.956Z,6.00
2022-12-22T01:00:42.122Z,5.90
2022-12-22T01:03:27.671Z,5.90
2022-12-22T01:06:13.508Z,5.90
2022-12-22T01:08:59.293Z,5.80
2022-12-22T01:11:44.953Z,5.80
2022-12-22T01:14:30.872Z,5.80
2022-12-22T01:17:18.097Z,5.70
2022-12-22T01:20:03.693Z,5.70
2022-12-22T01:22:49.372Z,5.70
2022-12-22T01:25:36.004Z,5.70
2022-12-22T01:28:21.465Z,5.70
2022-12-22T01:31:07.326Z,5.70
2022-12-22T01:33:54.127Z,5.70
2022-12-22T01:36:40.444Z,5.70
2022-12-22T01:39:27.042Z,5.70
2022-12-22T01:42:12.652Z,5.70
2022-12-22T01:44:58.177Z,5.70
2022-12-22T01:47:50.344Z,5.60
2022-12-22T01:50:40.429Z,5.60
2022-12-22T01:53:27.380Z,5.60
2022-12-22T01:56:13.063Z,5.60
2022-12-22T01:59:00.771Z,5.50
2022-12-22T02:01:47.537Z,5.50
2022-12-22T02:04:33.306Z,5.50
2022-12-22T02:07:23.471Z,5.50
2022-12-22T02:10:12.156Z,5.50
2022-12-22T02:13:00.951Z,5.60
2022-12-22T02:15:49.568Z,5.60
2022-12-22T02:18:37.782Z,5.60
2022-12-22T02:21:24.071Z,5.60
2022-12-22T02:24:25.967Z,5.60
2022-12-22T02:27:13.746Z,5.60
2022-12-22T02:30:00.408Z,5.70
2022-12-22T02:32:45.703Z,5.70
2022-12-22T02:35:31.805Z,5.70
2022-12-22T02:38:29.029Z,5.70
2022-12-22T02:41:20.213Z,5.70
2022-12-22T02:44:17.268Z,5.70
2022-12-22T02:47:05.021Z,5.70
2022-12-22T02:49:53.860Z,5.70
2022-12-22T02:52:40.226Z,5.50
2022-12-22T02:55:26.541Z,5.60
2022-12-22T02:58:12.093Z,5.50
2022-12-22T03:00:59.117Z,5.60
2022-12-22T03:03:44.832Z,5.70
2022-12-22T03:06:30.164Z,5.70
2022-12-22T03:09:15.621Z,5.80
2022-12-22T03:12:01.095Z,5.80
2022-12-22T03:14:46.411Z,5.80
2022-12-22T03:17:33.470Z,5.90
2022-12-22T03:20:18.790Z,5.90
2022-12-22T03:23:04.259Z,5.80
2022-12-22T03:25:49.603Z,5.90
2022-12-22T03:28:17.585Z,5.90
2022-12-22T03:30:45.605Z,5.90
2022-12-22T03:33:14.944Z,5.90
2022-12-22T03:35:42.966Z,5.90
2022-12-22T03:38:10.962Z,5.90
2022-12-22T03:40:38.993Z,5.90
2022-12-22T03:43:24.466Z,6.00
2022-12-22T03:46:24.826Z,6.00
2022-12-22T03:49:12.371Z,6.00
2022-12-22T03:51:42.550Z,6.00
2022-12-22T03:54:10.871Z,6.00
2022-12-22T03:56:38.915Z,6.00
2022-12-22T03:59:07.083Z,6.00
2022-12-22T04:01:35.493Z,6.00
2022-12-22T04:04:05.171Z,6.00
2022-12-22T04:06:33.185Z,6.10
2022-12-22T04:09:01.176Z,6.10
2022-12-22T04:11:46.818Z,6.10
2022-12-22T04:14:14.819Z,6.10
2022-12-22T04:16:42.933Z,6.10
2022-12-22T04:19:12.373Z,6.10
2022-12-22T04:21:40.461Z,6.10
2022-12-22T04:24:08.973Z,6.10
2022-12-22T04:26:36.964Z,6.10
2022-12-22T04:29:05.014Z,6.10
2022-12-22T04:31:33.064Z,6.10
2022-12-22T04:34:01.050Z,6.10
2022-12-22T04:36:30.432Z,6.10
2022-12-22T04:38:58.423Z,6.10
2022-12-22T04:41:26.438Z,6.10
2022-12-22T04:43:54.493Z,5.90
2022-12-22T04:46:22.582Z,5.90
2022-12-22T04:48:54.701Z,5.90
2022-12-22T04:51:27.545Z,5.90
2022-12-22T04:53:56.890Z,5.90
2022-12-22T04:56:24.929Z,6.00
2022-12-22T04:58:52.927Z,6.00
2022-12-22T05:01:21.027Z,6.00
2022-12-22T05:03:49.149Z,6.10
2022-12-22T05:06:17.227Z,6.10
2022-12-22T05:08:45.230Z,6.00
2022-12-22T05:11:14.594Z,6.00
2022-12-22T05:13:42.631Z,5.90
2022-12-22T05:16:11.730Z,6.00
2022-12-22T05:18:39.907Z,6.00
2022-12-22T05:21:08.449Z,6.00
2022-12-22T05:23:36.442Z,6.00
2022-12-22T05:26:04.494Z,6.00
2022-12-22T05:28:33.854Z,6.10
2022-12-22T05:31:05.050Z,6.10
2022-12-22T05:33:33.210Z,6.10
2022-12-22T05:36:01.363Z,6.10
2022-12-22T05:38:29.503Z,6.10
2022-12-22T05:41:03.569Z,6.20
2022-12-22T05:43:33.885Z,6.20
2022-12-22T05:46:03.612Z,6.20
2022-12-22T05:48:37.491Z,6.30
2022-12-22T05:51:07.496Z,6.30
2022-12-22T05:53:35.519Z,6.30
2022-12-22T05:56:03.550Z,6.30
2022-12-22T05:58:32.983Z,6.40
2022-12-22T06:01:01.228Z,6.40
2022-12-22T06:03:29.914Z,6.40
2022-12-22T06:05:58.256Z,6.40
2022-12-22T06:08:26.341Z,6.40
2022-12-22T06:10:55.127Z,6.40
2022-12-22T06:13:23.181Z,6.50
2022-12-22T06:15:52.581Z,6.50
2022-12-22T06:18:20.647Z,6.50
2022-12-22T06:20:48.642Z,6.40
2022-12-22T06:23:16.681Z,6.40
2022-12-22T06:25:44.685Z,6.40
2022-12-22T06:28:12.703Z,6.40
2022-12-22T06:30:40.707Z,6.50
2022-12-22T06:33:10.095Z,6.50
2022-12-22T06:35:38.128Z,6.50
2022-12-22T06:38:06.145Z,6.50
2022-12-22T06:40:34.149Z,6.60
2022-12-22T06:43:10.924Z,6.60
2022-12-22T06:45:40.349Z,6.60
2022-12-22T06:48:12.417Z,6.60
2022-12-22T06:50:40.498Z,6.60
2022-12-22T06:53:08.594Z,6.60
2022-12-22T06:55:36.834Z,6.60
2022-12-22T06:58:05.139Z,6.60
2022-12-22T07:00:33.205Z,6.70
2022-12-22T07:03:01.596Z,6.70
2022-12-22T07:05:31.988Z,6.70
2022-12-22T07:08:07.622Z,6.80
2022-12-22T07:10:54.128Z,6.80
2022-12-22T07:13:24.085Z,6.80
2022-12-22T07:15:59.594Z,6.80
2022-12-22T07:18:28.657Z,6.80
2022-12-22T07:20:58.011Z,6.80
2022-12-22T07:23:26.095Z,6.80
2022-12-22T07:25:54.155Z,6.90
2022-12-22T07:28:22.218Z,6.90
2022-12-22T07:30:50.442Z,6.90
2022-12-22T07:33:18.684Z,6.90
2022-12-22T07:35:46.687Z,6.90
2022-12-22T07:38:16.092Z,6.90
2022-12-22T07:40:47.951Z,6.90
2022-12-22T07:43:18.690Z,7.00
2022-12-22T07:45:46.702Z,7.00
2022-12-22T07:48:28.746Z,6.90
2022-12-22T07:50:56.986Z,7.00
2022-12-22T07:53:26.380Z,7.00
2022-12-22T07:55:54.391Z,7.00
2022-12-22T07:58:22.424Z,7.00
2022-12-22T08:00:50.439Z,7.00
2022-12-22T08:03:18.663Z,7.00
2022-12-22T08:05:46.815Z,7.00
2022-12-22T08:08:14.870Z,7.00
2022-12-22T08:10:44.219Z,7.00
2022-12-22T08:13:12.335Z,7.10
2022-12-22T08:15:40.433Z,7.10
2022-12-22T08:18:08.470Z,7.10
2022-12-22T08:20:36.476Z,7.10
2022-12-22T08:23:04.502Z,7.10
2022-12-22T08:25:33.003Z,7.10
2022-12-22T08:28:02.395Z,7.10
2022-12-22T08:30:30.448Z,7.10
2022-12-22T08:32:58.513Z,7.10
2022-12-22T08:35:26.515Z,7.10
2022-12-22T08:37:54.653Z,7.20
2022-12-22T08:40:24.171Z,7.20
2022-12-22T08:42:53.434Z,7.10
2022-12-22T08:45:22.783Z,7.20
2022-12-22T08:47:50.825Z,7.20
2022-12-22T08:50:18.943Z,7.20
2022-12-22T08:52:46.984Z,7.30
2022-12-22T08:55:15.032Z,7.30
2022-12-22T08:57:43.069Z,7.30
2022-12-22T09:00:13.304Z,7.30
2022-12-22T09:02:42.929Z,7.30
2022-12-22T09:05:11.031Z,7.30
2022-12-22T09:07:39.069Z,7.30
2022-12-22T09:10:08.252Z,7.40
2022-12-22T09:12:36.303Z,7.40
2022-12-22T09:15:04.675Z,7.40
2022-12-22T09:17:32.700Z,7.50
2022-12-22T09:20:02.083Z,7.50
2022-12-22T09:22:30.127Z,7.60
2022-12-22T09:24:58.165Z,7.60
2022-12-22T09:27:26.287Z,7.70
2022-12-22T09:29:54.365Z,7.70
2022-12-22T09:32:22.464Z,7.50
2022-12-22T09:34:50.476Z,7.40
2022-12-22T09:37:19.854Z,7.40
2022-12-22T09:39:47.871Z,7.50
2022-12-22T09:42:16.569Z,7.50
2022-12-22T09:44:46.059Z,7.50
2022-12-22T09:47:17.685Z,7.60
2022-12-22T09:49:45.705Z,7.50
2022-12-22T09:52:24.201Z,7.40
2022-12-22T09:54:52.198Z,7.40
2022-12-22T09:57:20.278Z,7.40
2022-12-22T09:59:48.293Z,7.40
2022-12-22T10:02:22.730Z,7.40
2022-12-22T10:05:07.919Z,7.40
2022-12-22T10:07:39.200Z,7.50
2022-12-22T10:10:08.785Z,7.50
2022-12-22T10:12:36.824Z,7.50
2022-12-22T10:15:05.245Z,7.60
2022-12-22T10:17:33.817Z,7.60
2022-12-22T10:20:10.774Z,7.70
2022-12-22T10:22:49.048Z,7.70
2022-12-22T10:25:51.942Z,7.70
2022-12-22T10:28:20.617Z,7.80
2022-12-22T10:30:48.647Z,7.80
2022-12-22T10:33:17.851Z,7.90
2022-12-22T10:35:50.455Z,8.00
2022-12-22T10:38:25.594Z,8.00
2022-12-22T10:41:00.116Z,8.00
2022-12-22T10:43:31.207Z,8.00
2022-12-22T10:45:59.456Z,7.90
2022-12-22T10:48:31.429Z,8.00
2022-12-22T10:50:59.731Z,8.00
2022-12-22T10:53:49.237Z,7.90
2022-12-22T10:56:23.233Z,7.80
2022-12-22T10:58:52.552Z,7.80
2022-12-22T11:01:29.017Z,7.90
2022-12-22T11:03:58.200Z,7.90
2022-12-22T11:06:26.287Z,8.00
2022-12-22T11:09:01.527Z,8.00
2022-12-22T11:11:47.272Z,8.10
2022-12-22T11:14:20.311Z,8.00
2022-12-22T11:16:50.631Z,7.90
2022-12-22T11:19:41.031Z,7.90
2022-12-22T11:22:14.005Z,7.90
2022-12-22T11:24:46.827Z,7.90
2022-12-22T11:27:24.044Z,8.00
2022-12-22T11:30:01.789Z,8.00
2022-12-22T11:32:59.595Z,8.10
2022-12-22T11:35:35.723Z,8.20
2022-12-22T11:38:07.391Z,8.30
2022-12-22T11:40:39.368Z,8.30
2022-12-22T11:43:23.701Z,8.40
2022-12-22T11:46:03.428Z,8.50
2022-12-22T11:49:08.875Z,8.50
2022-12-22T11:51:45.208Z,8.50
2022-12-22T11:54:34.021Z,8.60
2022-12-22T11:57:07.856Z,8.60
2022-12-22T11:59:41.401Z,8.60
2022-12-22T12:02:42.024Z,8.60
2022-12-22T12:05:25.900Z,8.70
2022-12-22T12:07:55.961Z,8.60
2022-12-22T12:10:25.735Z,8.60
2022-12-22T12:13:00.370Z,8.50
2022-12-22T12:15:31.590Z,8.50
2022-12-22T12:18:19.967Z,8.60
2022-12-22T12:20:53.988Z,8.60
2022-12-22T12:23:30.979Z,8.50
2022-12-22T12:26:01.903Z,8.40
2022-12-22T12:28:35.700Z,8.40
2022-12-22T12:31:03.757Z,8.40
2022-12-22T12:33:37.403Z,8.40
2022-12-22T12:36:10.107Z,8.40
2022-12-22T12:41:34.542Z,8.60
2022-12-22T12:44:03.990Z,8.70
2022-12-22T12:46:55.677Z,8.70
2022-12-22T12:49:55.675Z,8.70
2022-12-22T12:53:05.107Z,8.80
2022-12-22T12:55:33.714Z,8.80
2022-12-22T12:58:02.333Z,8.80
2022-12-22T13:00:49.841Z,8.90
2022-12-22T13:04:02.273Z,8.90
2022-12-22T13:06:51.268Z,8.90
2022-12-22T13:12:35.383Z,9.00
2022-12-22T13:15:03.428Z,8.80
2022-12-22T13:17:42.463Z,8.90
2022-12-22T13:20:14.139Z,8.80
2022-12-22T13:22:43.052Z,8.90
2022-12-22T13:25:14.755Z,8.90
2022-12-22T13:27:42.779Z,8.90
2022-12-22T13:30:14.886Z,8.90
2022-12-22T13:32:44.310Z,8.90
2022-12-22T13:35:37.420Z,8.90
2022-12-22T13:38:06.834Z,8.80
2022-12-22T13:40:41.398Z,8.60
2022-12-22T13:43:12.499Z,8.70
2022-12-22T13:45:40.946Z,8.20
2022-12-22T13:48:13.742Z,8.00
2022-12-22T13:50:44.202Z,7.90
2022-12-22T13:53:41.651Z,8.00
2022-12-22T13:56:03.318Z,8.00
2022-12-22T13:58:31.855Z,8.10
2022-12-22T14:01:15.331Z,8.10
2022-12-22T14:04:00.302Z,8.20
2022-12-22T14:06:30.249Z,8.20
2022-12-22T14:09:14.608Z,8.20
2022-12-22T14:11:50.721Z,8.20
2022-12-22T14:14:22.223Z,8.20
2022-12-22T14:16:51.004Z,8.20
2022-12-22T14:19:20.962Z,8.20
2022-12-22T14:21:50.361Z,8.20
2022-12-22T14:24:20.421Z,8.20
2022-12-22T14:26:48.458Z,8.20
2022-12-22T14:29:18.052Z,8.10
2022-12-22T14:31:55.928Z,8.10
2022-12-22T14:34:29.388Z,8.10
2022-12-22T14:37:00.437Z,8.10
2022-12-22T14:39:30.848Z,8.10
2022-12-22T14:42:00.064Z,8.20
2022-12-22T14:44:29.300Z,8.00
2022-12-22T14:47:08.018Z,8.10
2022-12-22T14:49:37.411Z,8.10
2022-12-22T14:52:07.564Z,8.20
2022-12-22T14:54:35.610Z,8.10
2022-12-22T14:57:10.066Z,8.20
2022-12-22T14:59:43.198Z,8.20
2022-12-22T15:02:22.157Z,8.20
2022-12-22T15:05:07.789Z,8.20
2022-12-22T15:10:37.034Z,8.10
2022-12-22T15:13:06.937Z,8.10
2022-12-22T15:15:35.004Z,8.00
2022-12-22T15:18:03.046Z,8.00
2022-12-22T15:20:38.934Z,8.00
2022-12-22T15:23:14.257Z,8.00
2022-12-22T15:25:42.361Z,7.90
2022-12-22T15:28:10.420Z,7.80
2022-12-22T15:30:38.561Z,7.80
2022-12-22T15:33:11.783Z,7.70
2022-12-22T15:35:41.318Z,7.70
2022-12-22T15:38:11.881Z,7.70
2022-12-22T15:40:39.930Z,7.60
2022-12-22T15:43:22.226Z,7.60
2022-12-22T15:45:56.097Z,7.60
2022-12-22T15:48:26.671Z,7.50
2022-12-22T15:50:56.075Z,7.60
2022-12-22T15:53:24.109Z,7.50
2022-12-22T15:55:54.367Z,7.50
2022-12-22T15:58:23.776Z,7.60
2022-12-22T16:00:51.798Z,7.60
2022-12-22T16:03:20.644Z,7.60
2022-12-22T16:05:48.748Z,7.60
2022-12-22T16:08:20.041Z,7.60
2022-12-22T16:10:48.083Z,7.60
2022-12-22T16:13:16.643Z,7.60
2022-12-22T16:15:44.685Z,7.60
2022-12-22T16:18:12.736Z,7.60
2022-12-22T16:20:41.520Z,7.60
2022-12-22T16:23:15.673Z,7.60
2022-12-22T16:25:45.496Z,7.50
2022-12-22T16:28:15.298Z,7.50
2022-12-22T16:30:43.334Z,7.50
2022-12-22T16:33:12.197Z,7.50
2022-12-22T16:35:40.412Z,7.40
2022-12-22T16:38:13.035Z,7.40
2022-12-22T16:40:46.473Z,7.30
2022-12-22T16:46:03.803Z,7.30
2022-12-22T16:48:33.727Z,7.20
2022-12-22T16:51:01.763Z,7.20
2022-12-22T16:53:29.769Z,7.20
2022-12-22T16:56:00.477Z,7.10
2022-12-22T16:58:28.496Z,7.10
2022-12-22T17:00:56.531Z,7.10
2022-12-22T17:03:26.003Z,7.10
2022-12-22T17:05:55.015Z,7.00
2022-12-22T17:08:24.702Z,7.00
2022-12-22T17:10:52.955Z,7.00
2022-12-22T17:13:22.663Z,6.90
2022-12-22T17:15:50.761Z,6.90
2022-12-22T17:18:19.491Z,6.80
2022-12-22T17:20:47.814Z,6.70
2022-12-22T17:23:26.077Z,6.70
2022-12-22T17:25:54.100Z,6.60
2022-12-22T17:28:23.457Z,6.60
2022-12-22T17:30:51.554Z,6.60
2022-12-22T17:33:19.847Z,6.50
2022-12-22T17:35:48.023Z,6.50
2022-12-22T17:38:16.151Z,6.40
2022-12-22T17:40:46.352Z,6.40
2022-12-22T17:43:43.200Z,6.40
2022-12-22T17:46:15.056Z,6.40
2022-12-22T17:48:43.616Z,6.30
2022-12-22T17:51:18.817Z,6.30
2022-12-22T17:53:47.338Z,6.30
2022-12-22T17:56:17.536Z,6.20
2022-12-22T17:58:46.898Z,6.20
2022-12-22T18:01:22.239Z,6.20
2022-12-22T18:03:50.329Z,6.10
2022-12-22T18:06:18.537Z,6.10
2022-12-22T18:08:46.535Z,6.00
2022-12-22T18:11:14.562Z,6.00
2022-12-22T18:13:42.579Z,6.00
2022-12-22T18:16:17.347Z,5.90
2022-12-22T18:18:45.460Z,5.90
2022-12-22T18:21:17.329Z,5.90
2022-12-22T18:23:49.872Z,5.80
2022-12-22T18:26:21.258Z,5.70
2022-12-22T18:28:49.274Z,5.70
2022-12-22T18:31:18.853Z,5.70
2022-12-22T18:33:46.893Z,5.60
2022-12-22T18:36:26.117Z,5.60
2022-12-22T18:38:54.965Z,5.60
2022-12-22T18:41:24.394Z,5.60
2022-12-22T18:43:52.536Z,5.70
2022-12-22T18:46:21.957Z,5.70
2022-12-22T18:48:50.080Z,5.70
2022-12-22T18:51:19.997Z,5.60
2022-12-22T18:53:48.063Z,5.60
2022-12-22T18:56:16.079Z,5.60
2022-12-22T18:58:44.130Z,5.70
2022-12-22T19:01:18.979Z,5.60
2022-12-22T19:03:48.443Z,5.70
2022-12-22T19:06:16.817Z,5.70
2022-12-22T19:08:47.233Z,5.60
2022-12-22T19:11:15.855Z,5.60
2022-12-22T19:13:44.770Z,5.70
2022-12-22T19:16:13.592Z,5.70
2022-12-22T19:18:41.739Z,5.70
2022-12-22T19:21:13.179Z,5.70
2022-12-22T19:23:41.198Z,5.70
2022-12-22T19:26:16.901Z,5.70
2022-12-22T19:28:44.912Z,5.70
2022-12-22T19:31:17.541Z,5.70
2022-12-22T19:33:45.614Z,5.80
2022-12-22T19:36:17.484Z,5.80
2022-12-22T19:38:50.218Z,5.80
2022-12-22T19:41:28.429Z,5.80
2022-12-22T19:43:56.447Z,5.80
2022-12-22T19:46:25.011Z,5.90
2022-12-22T19:48:53.051Z,5.90
2022-12-22T19:51:22.437Z,5.90
2022-12-22T19:53:50.431Z,5.90
2022-12-22T19:56:22.745Z,5.90
2022-12-22T19:58:50.758Z,5.90
2022-12-22T20:01:18.851Z,5.90
2022-12-22T20:03:46.905Z,6.00
2022-12-22T20:06:14.961Z,6.00
2022-12-22T20:08:44.655Z,6.00
2022-12-22T20:11:16.197Z,6.00
2022-12-22T20:13:44.255Z,6.10
2022-12-22T20:16:13.723Z,6.10
2022-12-22T20:18:41.933Z,6.00
2022-12-22T20:21:12.981Z,6.00
2022-12-22T20:23:40.989Z,6.10
2022-12-22T20:26:14.770Z,6.10
2022-12-22T20:28:43.019Z,6.10
2022-12-22T20:31:13.029Z,6.00
2022-12-22T20:33:41.104Z,6.10
2022-12-22T20:36:16.523Z,6.10
2022-12-22T20:38:44.535Z,6.10
2022-12-22T20:41:13.915Z,6.00
2022-12-22T20:43:42.067Z,6.10
2022-12-22T20:46:13.723Z,6.10
2022-12-22T20:48:43.823Z,6.10
2022-12-22T20:51:14.317Z,6.10
2022-12-22T20:53:42.400Z,6.10
2022-12-22T20:56:18.092Z,6.10
2022-12-22T20:58:46.129Z,6.00
2022-12-22T21:01:14.212Z,6.10
2022-12-22T21:03:42.253Z,6.10
2022-12-22T21:06:24.267Z,6.10
2022-12-22T21:08:52.386Z,6.10
2022-12-22T21:11:21.776Z,6.10
2022-12-22T21:13:49.832Z,6.10
2022-12-22T21:16:18.988Z,6.10
2022-12-22T21:18:47.379Z,6.10
2022-12-22T21:21:15.425Z,6.10
2022-12-22T21:23:43.458Z,6.10
2022-12-22T21:26:19.141Z,6.10
2022-12-22T21:28:48.505Z,6.00
2022-12-22T21:31:16.643Z,6.00
2022-12-22T21:33:45.403Z,6.10
2022-12-22T21:36:17.725Z,6.10
2022-12-22T21:38:47.399Z,6.00
2022-12-22T21:41:15.446Z,6.10
2022-12-22T21:43:43.556Z,6.10
2022-12-22T21:46:13.898Z,6.10
2022-12-22T21:48:41.970Z,6.20
2022-12-22T21:51:11.976Z,6.10
2022-12-22T21:53:40.097Z,6.10
2022-12-22T21:56:16.725Z,6.10
2022-12-22T21:58:44.755Z,6.10
2022-12-22T22:01:14.832Z,6.10
2022-12-22T22:03:42.957Z,6.10
2022-12-22T22:06:11.069Z,6.00
2022-12-22T22:08:39.050Z,6.00
2022-12-22T22:11:09.676Z,6.00
2022-12-22T22:13:37.680Z,6.00
2022-12-22T22:16:06.111Z,6.00
2022-12-22T22:18:35.606Z,5.90
2022-12-22T22:21:03.618Z,5.90
2022-12-22T22:23:31.624Z,5.90
2022-12-22T22:25:59.727Z,5.90
2022-12-22T22:28:27.912Z,5.90
2022-12-22T22:30:56.024Z,5.90
2022-12-22T22:33:24.048Z,5.90
2022-12-22T22:35:53.974Z,5.90
2022-12-22T22:38:22.186Z,5.90
2022-12-22T22:40:50.249Z,5.90
2022-12-22T22:43:18.252Z,5.90
2022-12-22T22:45:46.276Z,5.90
2022-12-22T22:48:19.109Z,5.90
2022-12-22T22:50:47.160Z,5.90
2022-12-22T22:53:16.526Z,5.90
2022-12-22T22:55:44.553Z,5.90
2022-12-22T22:58:12.553Z,5.80
2022-12-22T23:00:40.578Z,5.80
2022-12-22T23:03:08.690Z,5.80
2022-12-22T23:05:37.129Z,5.90
2022-12-22T23:08:05.553Z,5.80
2022-12-22T23:10:41.130Z,5.80
2022-12-22T23:13:09.968Z,5.90
2022-12-22T23:15:37.931Z,5.80
2022-12-22T23:18:06.063Z,5.80
2022-12-22T23:20:34.060Z,5.80
2022-12-22T23:23:02.093Z,5.80
2022-12-22T23:25:30.082Z,5.80
2022-12-22T23:27:59.455Z,5.80
2022-12-22T23:30:27.445Z,5.80
2022-12-22T23:32:55.465Z,5.80
2022-12-22T23:35:23.454Z,5.70
2022-12-22T23:37:51.773Z,5.70
2022-12-22T23:40:50.927Z,5.70
2022-12-22T23:43:10.779Z,5.70
2022-12-22T23:45:39.627Z,5.70
2022-12-22T23:48:07.761Z,5.70
2022-12-22T23:50:36.226Z,5.70
2022-12-22T23:53:04.247Z,5.70
2022-12-22T23:55:32.469Z,5.60
2022-12-22T23:58:00.499Z,5.60
